Time;durP1;ratioP1;P1;durP2;ratioP2;P2;SDS_P1;SDS_P2;PMS_P1;PMS_P2;Temp;Humidity;BMP_temperature;BMP_pressure;BME280_temperature;BME280_humidity;BME280_pressure;Samples;Min_cycle;Max_cycle;Signal;HPM_P1;HPM_P2
2022/12/27 00:01:31;;;;;;;6.30;1.57;;;4.10;99.90;;;;;;5033330;28;20448;-83
2022/12/27 00:03:58;;;;;;;4.67;1.60;;;4.10;99.90;;;;;;5030950;28;20461;-82
2022/12/27 00:06:26;;;;;;;8.43;2.23;;;4.10;99.90;;;;;;5025053;28;20657;-83
2022/12/27 00:08:56;;;;;;;6.20;1.97;;;4.10;99.90;;;;;;5028771;28;20454;-83
2022/12/27 00:11:25;;;;;;;12.53;2.00;;;4.20;99.90;;;;;;5033887;28;20456;-83
2022/12/27 00:13:52;;;;;;;7.53;2.60;;;4.20;99.90;;;;;;5037951;28;20454;-83
2022/12/27 00:16:20;;;;;;;2.93;1.50;;;4.20;99.90;;;;;;5037531;28;20808;-82
2022/12/27 00:18:48;;;;;;;5.13;1.50;;;4.20;99.90;;;;;;5037362;28;20467;-83
2022/12/27 00:21:16;;;;;;;7.93;2.10;;;4.20;99.90;;;;;;5036321;28;20450;-81
2022/12/27 00:23:45;;;;;;;5.67;1.80;;;4.20;99.90;;;;;;5036928;28;20460;-82
2022/12/27 00:26:16;;;;;;;5.27;1.83;;;4.10;99.90;;;;;;5036262;28;20495;-83
2022/12/27 00:28:43;;;;;;;12.00;2.07;;;4.20;99.90;;;;;;5038737;28;20452;-82
2022/12/27 00:31:11;;;;;;;3.50;2.33;;;4.20;99.90;;;;;;5041793;28;20456;-82
2022/12/27 00:33:39;;;;;;;6.30;1.80;;;4.10;99.90;;;;;;5039539;28;20464;-82
2022/12/27 00:36:09;;;;;;;4.50;2.17;;;4.10;99.90;;;;;;5039066;28;20453;-82
2022/12/27 00:38:36;;;;;;;4.40;1.63;;;4.20;99.90;;;;;;5035764;28;20452;-82
2022/12/27 00:41:04;;;;;;;13.23;2.20;;;4.10;99.90;;;;;;5040071;28;20555;-83
2022/12/27 00:43:32;;;;;;;7.10;1.70;;;4.10;99.90;;;;;;5039309;28;20448;-83
2022/12/27 00:45:59;;;;;;;8.27;2.00;;;4.10;99.90;;;;;;5023219;28;20528;-82
2022/12/27 00:48:25;;;;;;;2.80;1.67;;;4.20;99.90;;;;;;5035714;28;20501;-83
2022/12/27 00:50:58;;;;;;;3.07;1.50;;;4.20;99.90;;;;;;5037463;28;20461;-83
2022/12/27 00:53:24;;;;;;;5.10;1.90;;;4.10;99.90;;;;;;5038174;28;21020;-83
2022/12/27 00:55:51;;;;;;;7.77;2.67;;;4.10;99.90;;;;;;5037214;28;20543;-83
2022/12/27 00:58:18;;;;;;;8.40;2.30;;;4.10;99.90;;;;;;5037478;28;20469;-81
2022/12/27 01:00:46;;;;;;;9.13;2.30;;;4.10;99.90;;;;;;5034013;28;20459;-83
2022/12/27 01:03:13;;;;;;;7.53;1.90;;;4.10;99.90;;;;;;5033795;28;20834;-82
2022/12/27 01:05:40;;;;;;;9.50;2.50;;;4.10;99.90;;;;;;5037676;28;20498;-83
2022/12/27 01:08:07;;;;;;;5.67;1.97;;;4.20;99.90;;;;;;5038268;28;20473;-82
2022/12/27 01:10:34;;;;;;;3.20;1.60;;;4.10;99.90;;;;;;5039663;28;20474;-82
2022/12/27 01:13:02;;;;;;;8.10;2.47;;;4.10;99.90;;;;;;5040323;28;20459;-82
2022/12/27 01:15:29;;;;;;;6.07;2.00;;;4.10;99.90;;;;;;5042261;28;20511;-83
2022/12/27 01:17:57;;;;;;;6.50;2.23;;;4.10;99.90;;;;;;5041210;28;20478;-83
2022/12/27 01:20:24;;;;;;;6.17;2.30;;;4.10;99.90;;;;;;5041007;28;20524;-83
2022/12/27 01:22:53;;;;;;;4.90;2.10;;;4.20;99.90;;;;;;5040546;28;21048;-83
2022/12/27 01:25:20;;;;;;;8.93;2.07;;;4.10;99.90;;;;;;5041507;28;20480;-84
2022/12/27 01:27:47;;;;;;;7.60;1.93;;;4.20;99.90;;;;;;5062291;22;20959;-83
2022/12/27 01:30:14;;;;;;;5.90;2.30;;;4.10;99.90;;;;;;5026517;28;20450;-82
2022/12/27 01:32:41;;;;;;;4.10;1.93;;;4.10;99.90;;;;;;5019985;28;20980;-82
2022/12/27 01:35:09;;;;;;;9.50;2.37;;;4.20;99.90;;;;;;5020911;28;20446;-83
2022/12/27 01:37:36;;;;;;;3.70;2.07;;;4.20;99.90;;;;;;5019578;28;20478;-83
2022/12/27 01:40:03;;;;;;;9.40;3.23;;;4.30;99.90;;;;;;5017573;28;21013;-82
2022/12/27 01:45:15;;;;;;;7.60;2.30;;;4.40;99.90;;;;;;5020656;28;20469;-83
2022/12/27 01:47:48;;;;;;;4.83;1.83;;;4.30;99.90;;;;;;5020860;28;20486;-82
2022/12/27 01:50:26;;;;;;;5.90;2.07;;;4.30;99.90;;;;;;5019705;28;20468;-83
2022/12/27 01:52:59;;;;;;;7.70;2.43;;;4.30;99.90;;;;;;5019572;28;20463;-83
2022/12/27 01:55:33;;;;;;;7.50;2.00;;;4.20;99.90;;;;;;5018894;28;20452;-84
2022/12/27 01:58:04;;;;;;;4.20;2.13;;;4.20;99.90;;;;;;5017039;28;21081;-83
2022/12/27 02:00:31;;;;;;;8.93;2.23;;;4.20;99.90;;;;;;5019400;28;20451;-83
2022/12/27 02:02:59;;;;;;;4.53;2.03;;;4.20;99.90;;;;;;5020115;28;20488;-84
2022/12/27 02:05:28;;;;;;;8.40;1.90;;;4.20;99.90;;;;;;5018755;28;20928;-84
2022/12/27 02:08:05;;;;;;;5.70;2.43;;;4.20;99.90;;;;;;5019306;28;21087;-84
2022/12/27 02:10:33;;;;;;;6.33;2.30;;;4.20;99.90;;;;;;5019748;28;20453;-85
2022/12/27 02:13:03;;;;;;;5.03;1.73;;;4.20;99.90;;;;;;5021703;28;20831;-85
2022/12/27 02:15:30;;;;;;;4.90;2.70;;;4.20;99.90;;;;;;5022327;28;20448;-84
2022/12/27 02:17:57;;;;;;;4.80;2.03;;;4.10;99.90;;;;;;5022349;28;20465;-85
2022/12/27 02:20:25;;;;;;;5.50;1.90;;;4.10;99.90;;;;;;5027905;28;20448;-85
2022/12/27 02:26:32;;;;;;;6.80;2.40;;;4.20;99.90;;;;;;5029846;28;20481;-84
2022/12/27 02:29:33;;;;;;;3.70;1.67;;;4.20;99.90;;;;;;5022020;28;20495;-84
2022/12/27 02:32:06;;;;;;;3.23;1.50;;;4.20;99.90;;;;;;5003257;28;21271;-84
2022/12/27 02:34:49;;;;;;;8.27;2.23;;;4.20;99.90;;;;;;5002710;28;20943;-84
2022/12/27 02:37:17;;;;;;;12.73;2.07;;;4.20;99.90;;;;;;5018760;28;20467;-83
2022/12/27 02:39:48;;;;;;;9.93;2.60;;;4.20;99.90;;;;;;5019971;28;20464;-84
2022/12/27 02:53:49;;;;;;;3.40;2.33;;;4.20;99.90;;;;;;5022057;28;20481;-85
2022/12/27 02:59:27;;;;;;;6.50;1.70;;;4.20;99.90;;;;;;5030391;28;20509;-79
2022/12/27 03:05:02;;;;;;;5.93;2.33;;;4.20;99.90;;;;;;4994952;28;20447;-79
2022/12/27 03:07:36;;;;;;;5.37;1.70;;;4.20;99.90;;;;;;4997903;28;20470;-80
2022/12/27 03:16:06;;;;;;;6.37;1.67;;;4.20;99.90;;;;;;5016388;28;20437;-79
2022/12/27 03:19:02;;;;;;;9.13;1.60;;;4.30;99.90;;;;;;5016238;28;20822;-79
2022/12/27 03:27:16;;;;;;;7.57;1.90;;;4.20;99.90;;;;;;5017710;28;20481;-79
2022/12/27 03:35:31;;;;;;;5.00;1.70;;;4.20;99.90;;;;;;5019770;28;20436;-79
2022/12/27 03:38:01;;;;;;;4.07;1.57;;;4.20;99.90;;;;;;5021321;28;20469;-78
2022/12/27 03:40:37;;;;;;;11.23;2.63;;;4.20;99.90;;;;;;5018076;28;20962;-78
2022/12/27 03:43:10;;;;;;;10.60;2.37;;;4.20;99.90;;;;;;5015400;28;20457;-78
2022/12/27 03:48:48;;;;;;;4.67;2.07;;;4.30;99.90;;;;;;5014631;28;20469;-78
2022/12/27 03:51:20;;;;;;;6.53;1.73;;;4.20;99.90;;;;;;5016107;28;20456;-78
2022/12/27 03:53:50;;;;;;;7.53;3.43;;;4.30;99.90;;;;;;5016058;28;20485;-78
2022/12/27 03:56:17;;;;;;;8.40;2.83;;;4.30;99.90;;;;;;5015332;28;20443;-79
2022/12/27 03:58:44;;;;;;;8.37;2.40;;;4.30;99.90;;;;;;5014878;28;20562;-79
2022/12/27 04:01:11;;;;;;;6.30;2.07;;;4.30;99.90;;;;;;5014611;28;20461;-79
2022/12/27 04:03:38;;;;;;;3.93;1.60;;;4.30;99.90;;;;;;5017910;28;20458;-78
2022/12/27 04:06:05;;;;;;;12.07;2.90;;;4.30;99.90;;;;;;5019946;28;20485;-78
2022/12/27 04:35:56;;;;;;;5.07;2.40;;;4.30;99.90;;;;;;5019466;28;20488;-79
2022/12/27 04:38:23;;;;;;;5.50;2.00;;;4.30;99.90;;;;;;5019829;28;20476;-79
2022/12/27 04:54:58;;;;;;;5.57;2.03;;;4.30;99.90;;;;;;5020570;28;20468;-79
2022/12/27 04:57:26;;;;;;;5.93;2.33;;;4.30;99.90;;;;;;5016075;28;20485;-80
2022/12/27 05:02:37;;;;;;;7.73;2.80;;;4.30;99.90;;;;;;5017821;28;20460;-80
2022/12/27 05:05:05;;;;;;;4.77;1.93;;;4.40;99.90;;;;;;5032983;28;20474;-78
2022/12/27 05:15:46;;;;;;;6.93;1.93;;;4.50;99.90;;;;;;5017231;28;20433;-79
2022/12/27 05:18:13;;;;;;;9.23;3.30;;;4.50;99.90;;;;;;5018390;28;20557;-78
2022/12/27 05:20:39;;;;;;;4.90;1.50;;;4.60;99.90;;;;;;5017844;28;20458;-79
2022/12/27 05:26:02;;;;;;;7.30;1.80;;;4.70;99.90;;;;;;4977254;28;20473;-80
2022/12/27 05:28:30;;;;;;;6.33;1.87;;;4.70;99.90;;;;;;5008097;28;20486;-79
2022/12/27 05:31:01;;;;;;;5.53;2.53;;;4.70;99.90;;;;;;5019638;28;20464;-80
2022/12/27 05:33:30;;;;;;;4.70;2.17;;;4.70;99.90;;;;;;5019312;28;20451;-79
2022/12/27 05:35:58;;;;;;;4.30;2.27;;;4.70;99.90;;;;;;5019048;28;20450;-79
2022/12/27 05:38:25;;;;;;;5.43;2.03;;;4.70;99.90;;;;;;5018373;28;20478;-79
2022/12/27 05:40:56;;;;;;;6.37;2.83;;;4.80;99.90;;;;;;5016870;28;20553;-77
2022/12/27 05:43:23;;;;;;;5.13;2.53;;;4.80;99.90;;;;;;5011419;28;20533;-79
2022/12/27 05:45:51;;;;;;;6.80;2.30;;;4.80;99.90;;;;;;5007133;28;20495;-79
2022/12/27 05:48:18;;;;;;;12.93;2.60;;;4.80;99.90;;;;;;5013204;28;20482;-79
2022/12/27 05:50:45;;;;;;;7.10;2.70;;;4.90;99.90;;;;;;5018556;28;20461;-79
2022/12/27 05:53:12;;;;;;;10.20;2.87;;;5.00;99.90;;;;;;5010353;28;20908;-80
2022/12/27 05:55:39;;;;;;;6.37;3.10;;;5.00;99.90;;;;;;5016487;28;20478;-79
2022/12/27 05:58:06;;;;;;;9.20;4.50;;;5.10;99.90;;;;;;5018708;28;20556;-81
2022/12/27 06:00:33;;;;;;;10.47;3.23;;;5.20;99.90;;;;;;5029281;28;20464;-77
2022/12/27 06:03:04;;;;;;;12.60;2.87;;;5.30;99.90;;;;;;5022889;28;20545;-78
2022/12/27 06:05:31;;;;;;;8.53;3.07;;;5.30;99.90;;;;;;5033247;28;20460;-78
2022/12/27 06:07:58;;;;;;;5.90;3.23;;;5.30;99.90;;;;;;5017502;28;20483;-79
2022/12/27 06:10:25;;;;;;;7.33;2.97;;;5.40;99.90;;;;;;5016116;28;20448;-80
2022/12/27 06:12:51;;;;;;;6.40;3.10;;;5.40;99.90;;;;;;5015252;28;20449;-79
2022/12/27 06:15:18;;;;;;;8.80;4.07;;;5.50;99.90;;;;;;5016830;28;20449;-78
2022/12/27 06:17:45;;;;;;;5.87;3.27;;;5.50;99.90;;;;;;5016577;28;20470;-79
2022/12/27 06:20:13;;;;;;;6.63;2.97;;;5.40;99.90;;;;;;5015854;28;20460;-79
2022/12/27 06:22:40;;;;;;;7.97;3.53;;;5.40;99.90;;;;;;5016050;28;20440;-79
2022/12/27 06:25:07;;;;;;;5.87;3.77;;;5.40;99.90;;;;;;5016365;28;20460;-78
2022/12/27 06:27:34;;;;;;;5.53;3.03;;;5.30;99.90;;;;;;5015456;28;20963;-79
2022/12/27 06:30:01;;;;;;;12.37;4.30;;;5.20;99.90;;;;;;5015883;28;20487;-79
2022/12/27 06:32:28;;;;;;;6.70;3.13;;;5.20;99.90;;;;;;5012532;28;20457;-80
2022/12/27 06:34:54;;;;;;;10.63;3.80;;;5.10;99.90;;;;;;5016536;28;20463;-80
2022/12/27 06:37:22;;;;;;;7.23;3.30;;;5.00;99.90;;;;;;5015862;28;20435;-79
2022/12/27 06:39:49;;;;;;;6.83;4.07;;;5.10;99.90;;;;;;5016324;28;20454;-80
2022/12/27 06:42:16;;;;;;;13.13;4.27;;;5.00;99.90;;;;;;5012508;28;20447;-79
2022/12/27 06:44:43;;;;;;;5.57;3.17;;;5.00;99.90;;;;;;5016482;28;20454;-78
2022/12/27 06:47:10;;;;;;;8.37;3.63;;;5.00;99.90;;;;;;5015624;28;20482;-79
2022/12/27 06:49:37;;;;;;;4.00;3.60;;;5.00;99.90;;;;;;5015293;28;20471;-80
2022/12/27 06:52:03;;;;;;;8.60;4.43;;;5.10;99.90;;;;;;5016176;28;20442;-80
2022/12/27 06:54:32;;;;;;;6.50;3.97;;;5.00;99.90;;;;;;5017041;28;20447;-79
2022/12/27 06:56:59;;;;;;;5.40;3.30;;;5.00;99.90;;;;;;5013712;28;20897;-78
2022/12/27 06:59:25;;;;;;;5.40;3.20;;;5.00;99.90;;;;;;5014867;28;20493;-80
2022/12/27 07:01:52;;;;;;;7.10;3.13;;;4.90;99.90;;;;;;5012602;28;20524;-78
2022/12/27 07:04:19;;;;;;;7.67;3.40;;;4.90;99.90;;;;;;5013637;28;20451;-80
2022/12/27 07:06:46;;;;;;;11.60;4.00;;;4.90;99.90;;;;;;5017989;28;20941;-80
2022/12/27 07:09:12;;;;;;;12.13;3.47;;;4.80;99.90;;;;;;5017116;28;20482;-79
2022/12/27 07:11:41;;;;;;;19.07;3.83;;;4.80;99.90;;;;;;5018799;28;20453;-78
2022/12/27 07:14:09;;;;;;;9.23;4.10;;;4.70;99.90;;;;;;5026828;28;20450;-78
2022/12/27 07:16:36;;;;;;;5.03;3.30;;;4.70;99.90;;;;;;5016185;28;20446;-80
2022/12/27 07:19:03;;;;;;;5.80;2.90;;;4.70;99.90;;;;;;5016702;28;20471;-79
2022/12/27 07:21:30;;;;;;;7.60;3.50;;;4.80;99.90;;;;;;5015738;28;20525;-79
2022/12/27 07:23:57;;;;;;;10.40;3.80;;;4.80;99.90;;;;;;5016164;28;20452;-80
2022/12/27 07:26:27;;;;;;;5.20;2.40;;;4.90;99.90;;;;;;5017503;28;20554;-80
2022/12/27 07:28:56;;;;;;;7.43;3.80;;;4.90;99.90;;;;;;5039286;22;20506;-79
2022/12/27 07:31:29;;;;;;;7.57;3.10;;;4.90;99.90;;;;;;5012417;28;21034;-80
2022/12/27 07:33:56;;;;;;;9.43;3.03;;;4.90;99.90;;;;;;5013118;28;20445;-78
2022/12/27 07:36:25;;;;;;;6.47;3.10;;;4.80;99.90;;;;;;5017608;28;20455;-79
2022/12/27 07:38:52;;;;;;;8.93;2.80;;;4.70;99.90;;;;;;5013898;28;20497;-79
2022/12/27 07:41:20;;;;;;;4.93;2.47;;;4.70;99.90;;;;;;5002674;28;20459;-79
2022/12/27 07:43:47;;;;;;;9.17;3.10;;;4.60;99.90;;;;;;4990560;28;20462;-80
2022/12/27 07:46:17;;;;;;;5.53;3.30;;;4.60;99.90;;;;;;5010936;28;20499;-79
2022/12/27 07:48:45;;;;;;;8.67;3.20;;;4.70;99.90;;;;;;5000414;28;20458;-82
2022/12/27 07:51:12;;;;;;;6.03;2.73;;;4.50;99.90;;;;;;4999141;28;20811;-79
2022/12/27 07:53:39;;;;;;;13.60;2.80;;;4.50;99.90;;;;;;4999392;28;20468;-81
2022/12/27 07:56:07;;;;;;;10.70;3.10;;;4.50;99.90;;;;;;4998011;28;20456;-79
2022/12/27 07:58:39;;;;;;;9.03;2.47;;;4.50;99.90;;;;;;4995540;28;21011;-80
2022/12/27 08:01:06;;;;;;;7.40;2.63;;;4.40;99.90;;;;;;4993537;28;20451;-79
2022/12/27 08:03:35;;;;;;;7.50;2.67;;;4.40;99.90;;;;;;4995250;28;20459;-82
2022/12/27 08:06:02;;;;;;;4.87;3.17;;;4.50;99.90;;;;;;4993181;28;20454;-82
2022/12/27 08:08:37;;;;;;;7.80;3.20;;;4.40;99.90;;;;;;4992875;28;20454;-82
2022/12/27 08:11:04;;;;;;;14.33;2.93;;;4.60;99.90;;;;;;4993720;28;20801;-82
2022/12/27 08:13:30;;;;;;;4.43;2.37;;;4.60;99.90;;;;;;4993573;28;20452;-82
2022/12/27 08:15:57;;;;;;;10.60;2.10;;;4.60;99.90;;;;;;4994025;28;21024;-82
2022/12/27 08:18:24;;;;;;;4.30;2.37;;;4.60;99.90;;;;;;4990003;28;20466;-82
2022/12/27 08:20:52;;;;;;;8.60;2.40;;;4.70;99.90;;;;;;4990206;28;20459;-82
2022/12/27 08:23:19;;;;;;;5.93;2.60;;;4.70;99.90;;;;;;4993061;28;20944;-81
2022/12/27 08:25:46;;;;;;;8.93;2.30;;;4.70;99.90;;;;;;4993217;28;20456;-83
2022/12/27 08:28:15;;;;;;;11.77;3.07;;;4.70;99.90;;;;;;4985150;28;20483;-82
2022/12/27 08:30:44;;;;;;;12.50;3.03;;;4.60;99.90;;;;;;4989406;28;20449;-82
2022/12/27 08:33:11;;;;;;;6.93;2.53;;;4.70;99.90;;;;;;4992941;28;20462;-82
2022/12/27 08:35:39;;;;;;;8.47;2.60;;;4.70;99.90;;;;;;4988966;28;20839;-83
2022/12/27 08:38:08;;;;;;;6.43;2.83;;;4.70;99.90;;;;;;4989290;28;20447;-82
2022/12/27 08:40:38;;;;;;;9.90;2.70;;;5.30;99.90;;;;;;4989094;28;21107;-84
2022/12/27 08:43:05;;;;;;;9.93;3.40;;;4.80;99.90;;;;;;4992991;28;20531;-82
2022/12/27 08:45:32;;;;;;;4.90;2.40;;;5.10;99.90;;;;;;4989211;28;20474;-83
2022/12/27 08:48:00;;;;;;;4.40;2.10;;;5.00;99.90;;;;;;4992477;28;20481;-83
2022/12/27 08:50:27;;;;;;;9.33;2.80;;;5.20;99.90;;;;;;4997517;28;20479;-83
2022/12/27 08:52:57;;;;;;;7.63;2.60;;;5.20;99.90;;;;;;4995065;28;20535;-82
2022/12/27 08:55:26;;;;;;;4.27;2.10;;;5.20;99.90;;;;;;4992258;28;20506;-84
2022/12/27 08:57:56;;;;;;;8.33;2.20;;;5.30;99.90;;;;;;4996919;28;20963;-83
2022/12/27 09:00:23;;;;;;;6.57;2.80;;;5.20;99.90;;;;;;4997778;28;20918;-84
2022/12/27 09:02:50;;;;;;;10.20;2.57;;;5.50;99.90;;;;;;4997741;28;20464;-84
2022/12/27 09:05:18;;;;;;;5.63;2.37;;;5.40;99.90;;;;;;4996690;28;20455;-82
2022/12/27 09:07:45;;;;;;;10.83;2.73;;;5.00;99.90;;;;;;4994924;28;20478;-83
2022/12/27 09:10:12;;;;;;;5.10;2.20;;;5.50;99.90;;;;;;4991238;28;20485;-84
2022/12/27 09:12:40;;;;;;;3.30;1.60;;;5.30;99.90;;;;;;5005442;28;20448;-83
2022/12/27 09:15:09;;;;;;;6.67;2.20;;;5.20;99.90;;;;;;5011753;28;20471;-83
2022/12/27 09:17:36;;;;;;;8.40;2.07;;;;;;;;;;5015301;28;20515;-83
2022/12/27 09:20:03;;;;;;;4.87;2.30;;;5.40;99.90;;;;;;5013547;28;20537;-84
2022/12/27 09:22:30;;;;;;;10.33;2.60;;;5.00;99.90;;;;;;5015741;28;20444;-83
2022/12/27 09:24:57;;;;;;;5.20;2.40;;;5.30;99.90;;;;;;5001707;28;20456;-84
2022/12/27 09:27:23;;;;;;;5.47;2.53;;;5.40;99.90;;;;;;4999248;28;20492;-84
2022/12/27 09:29:52;;;;;;;5.20;2.37;;;5.30;99.90;;;;;;5002155;28;20493;-84
2022/12/27 09:32:19;;;;;;;7.90;2.50;;;;;;;;;;4997990;28;20457;-84
2022/12/27 09:34:45;;;;;;;11.03;2.30;;;5.60;99.90;;;;;;4996075;28;20463;-84
2022/12/27 09:37:12;;;;;;;8.10;2.67;;;5.60;99.90;;;;;;5000105;28;20452;-85
2022/12/27 09:39:39;;;;;;;7.43;2.63;;;;;;;;;;4997981;28;20469;-84
2022/12/27 09:42:15;;;;;;;5.00;1.93;;;5.80;99.90;;;;;;4994507;28;20541;-84
2022/12/27 09:44:49;;;;;;;4.93;1.80;;;5.60;99.90;;;;;;4995552;28;20977;-84
2022/12/27 09:47:24;;;;;;;5.60;1.90;;;5.70;99.90;;;;;;5000364;28;20499;-84
2022/12/27 09:49:55;;;;;;;9.40;2.00;;;5.80;99.90;;;;;;4999265;28;20554;-84
2022/12/27 09:52:33;;;;;;;3.80;1.80;;;5.70;99.90;;;;;;5000289;28;20459;-84
2022/12/27 09:55:05;;;;;;;12.07;2.13;;;5.80;99.90;;;;;;4999680;28;20470;-84
2022/12/27 09:57:36;;;;;;;8.60;2.17;;;5.90;99.90;;;;;;4996868;28;20457;-84
2022/12/27 10:00:07;;;;;;;14.13;3.10;;;5.90;99.90;;;;;;4992788;28;20513;-83
2022/12/27 10:02:35;;;;;;;5.70;1.77;;;6.00;99.90;;;;;;4979939;28;20448;-82
2022/12/27 10:05:03;;;;;;;8.00;2.00;;;6.00;99.90;;;;;;4982758;28;20551;-84
2022/12/27 10:07:43;;;;;;;11.13;2.10;;;6.40;99.90;;;;;;4986221;28;20548;-84
2022/12/27 10:10:21;;;;;;;10.83;2.40;;;6.40;99.90;;;;;;4978892;28;20517;-82
2022/12/27 10:13:09;;;;;;;6.23;2.10;;;6.40;99.90;;;;;;4984992;28;20507;-82
2022/12/27 10:15:47;;;;;;;4.60;2.87;;;6.40;99.90;;;;;;4999274;28;20825;-83
2022/12/27 10:18:24;;;;;;;3.67;1.67;;;7.20;99.90;;;;;;4986559;28;20452;-84
2022/12/27 10:21:01;;;;;;;6.50;2.17;;;6.40;99.90;;;;;;4997539;28;20489;-83
2022/12/27 10:23:32;;;;;;;4.80;2.20;;;6.50;99.90;;;;;;4992439;28;20457;-82
2022/12/27 10:26:02;;;;;;;5.43;2.37;;;6.60;99.90;;;;;;4991681;28;20461;-82
2022/12/27 10:28:38;;;;;;;7.73;2.20;;;6.60;99.90;;;;;;4995469;28;20509;-82
2022/12/27 10:31:08;;;;;;;10.03;2.07;;;6.50;99.90;;;;;;4982286;28;20465;-82
2022/12/27 10:33:36;;;;;;;8.30;3.30;;;6.70;99.90;;;;;;4989515;28;20866;-82
2022/12/27 10:36:09;;;;;;;10.70;2.27;;;6.90;99.90;;;;;;4998212;28;20465;-83
2022/12/27 10:38:36;;;;;;;9.20;2.03;;;7.00;99.90;;;;;;4992213;28;20480;-82
2022/12/27 10:41:15;;;;;;;4.60;1.90;;;7.10;99.90;;;;;;4992138;28;20462;-83
2022/12/27 10:43:44;;;;;;;3.93;1.77;;;7.00;99.90;;;;;;5000026;28;20974;-82
2022/12/27 10:46:13;;;;;;;4.90;1.90;;;7.30;99.90;;;;;;4998288;28;20520;-83
2022/12/27 10:48:54;;;;;;;6.10;1.93;;;7.40;99.90;;;;;;4995365;28;20493;-83
2022/12/27 10:51:22;;;;;;;2.80;1.70;;;;;;;;;;4997523;28;20927;-82
2022/12/27 10:54:01;;;;;;;18.60;2.40;;;7.30;99.90;;;;;;4995674;28;20482;-82
2022/12/27 10:56:30;;;;;;;5.20;1.53;;;7.40;99.90;;;;;;4998940;28;21321;-83
2022/12/27 10:59:11;;;;;;;5.10;1.60;;;7.30;99.90;;;;;;4997157;28;21017;-83
2022/12/27 11:01:38;;;;;;;5.30;2.10;;;7.30;99.90;;;;;;4991170;28;20936;-83
2022/12/27 11:04:15;;;;;;;5.20;2.20;;;7.40;99.90;;;;;;4991727;28;20492;-83
2022/12/27 11:06:43;;;;;;;8.07;2.13;;;7.60;99.90;;;;;;4994930;28;20941;-85
2022/12/27 11:09:26;;;;;;;7.33;2.00;;;7.80;99.90;;;;;;4996329;28;20501;-82
2022/12/27 11:12:10;;;;;;;13.17;2.70;;;8.30;99.90;;;;;;5005004;28;20477;-83
2022/12/27 11:14:39;;;;;;;8.97;2.00;;;7.80;99.90;;;;;;4986606;28;20453;-85
2022/12/27 11:17:10;;;;;;;7.60;2.20;;;8.00;99.90;;;;;;4997155;28;20818;-84
2022/12/27 11:19:44;;;;;;;9.17;2.10;;;8.20;99.90;;;;;;4991238;28;20474;-85
2022/12/27 11:22:11;;;;;;;6.13;1.80;;;;;;;;;;4996926;28;20447;-85
2022/12/27 11:24:45;;;;;;;5.90;1.70;;;8.40;99.90;;;;;;4997515;28;20459;-85
2022/12/27 11:27:22;;;;;;;5.83;2.13;;;8.70;99.90;;;;;;4999132;28;20573;-84
2022/12/27 11:29:50;;;;;;;5.47;1.63;;;8.70;99.90;;;;;;4994613;28;20485;-83
2022/12/27 11:32:22;;;;;;;6.57;2.00;;;10.00;99.90;;;;;;4997635;28;20463;-83
2022/12/27 11:34:53;;;;;;;3.03;1.40;;;11.70;99.90;;;;;;5002765;28;20451;-82
2022/12/27 11:37:22;;;;;;;7.90;2.00;;;11.60;99.90;;;;;;4999796;28;20491;-84
2022/12/27 11:39:51;;;;;;;3.80;1.73;;;12.10;99.90;;;;;;4996268;28;20499;-82
2022/12/27 11:42:31;;;;;;;5.73;1.50;;;11.90;99.90;;;;;;4999650;28;20612;-83
2022/12/27 11:45:06;;;;;;;5.67;1.83;;;11.70;99.90;;;;;;4993871;28;20837;-83
2022/12/27 11:47:41;;;;;;;10.13;2.37;;;10.90;99.90;;;;;;5013523;28;20492;-82
2022/12/27 11:50:40;;;;;;;8.47;1.93;;;11.60;99.90;;;;;;5003235;28;20539;-82
2022/12/27 11:53:20;;;;;;;7.10;2.13;;;10.80;99.90;;;;;;5000426;28;20462;-82
2022/12/27 11:56:12;;;;;;;4.33;1.90;;;11.20;99.90;;;;;;5000763;28;20459;-82
2022/12/27 11:59:04;;;;;;;8.90;2.07;;;11.80;99.90;;;;;;4991503;28;20505;-83
2022/12/27 12:01:59;;;;;;;5.90;1.60;;;13.00;99.90;;;;;;4991785;28;20466;-83
2022/12/27 12:05:03;;;;;;;3.20;1.70;;;15.10;99.90;;;;;;4984645;28;20459;-83
2022/12/27 12:07:46;;;;;;;6.47;1.53;;;15.90;99.90;;;;;;4998133;28;20590;-82
2022/12/27 12:10:29;;;;;;;12.27;2.50;;;15.20;99.90;;;;;;4998406;28;20481;-82
2022/12/27 12:13:13;;;;;;;5.80;1.67;;;15.80;99.90;;;;;;4997201;28;20547;-83
2022/12/27 12:16:08;;;;;;;41.97;19.83;;;15.50;99.90;;;;;;4996696;28;20506;-82
2022/12/27 12:18:48;;;;;;;8.63;5.43;;;13.90;99.90;;;;;;4986649;28;20941;-83
2022/12/27 12:21:24;;;;;;;3.90;1.83;;;13.80;99.90;;;;;;4992270;28;20460;-82
2022/12/27 12:24:13;;;;;;;6.77;1.77;;;12.80;99.90;;;;;;4992442;28;20461;-81
2022/12/27 12:26:50;;;;;;;5.20;1.80;;;12.10;99.90;;;;;;4998094;28;20454;-81
2022/12/27 12:29:39;;;;;;;6.77;1.47;;;11.60;99.90;;;;;;4995273;28;20501;-81
2022/12/27 12:32:36;;;;;;;7.50;1.73;;;11.40;99.90;;;;;;4989609;28;20469;-81
2022/12/27 12:35:29;;;;;;;4.77;1.70;;;10.60;99.90;;;;;;4984558;28;20468;-83
2022/12/27 12:38:09;;;;;;;10.53;2.13;;;10.30;99.90;;;;;;4995280;28;20510;-82
2022/12/27 12:41:11;;;;;;;6.10;1.90;;;9.80;99.90;;;;;;5002956;28;20481;-82
2022/12/27 12:44:00;;;;;;;3.03;1.80;;;9.60;99.90;;;;;;5009508;28;20464;-82
2022/12/27 12:46:35;;;;;;;7.60;1.83;;;9.30;99.90;;;;;;4965998;28;20455;-84
2022/12/27 12:49:29;;;;;;;5.80;2.03;;;8.90;99.90;;;;;;5009197;28;20501;-82
2022/12/27 12:52:13;;;;;;;6.53;1.73;;;8.70;99.90;;;;;;5012864;28;20456;-82
2022/12/27 12:55:01;;;;;;;8.60;2.30;;;8.20;99.90;;;;;;5024815;28;20526;-81
2022/12/27 12:57:42;;;;;;;3.97;2.17;;;8.60;99.90;;;;;;5019338;28;20477;-82
2022/12/27 13:00:39;;;;;;;2.87;1.43;;;8.70;99.90;;;;;;5008152;28;20891;-83
2022/12/27 13:03:42;;;;;;;10.10;2.80;;;8.70;99.90;;;;;;4995485;28;20539;-83
2022/12/27 13:06:25;;;;;;;3.47;1.70;;;8.60;99.90;;;;;;5007869;28;20456;-82
2022/12/27 13:09:03;;;;;;;4.10;1.93;;;8.60;99.90;;;;;;5010992;28;20596;-82
2022/12/27 13:11:42;;;;;;;9.53;1.73;;;8.40;99.90;;;;;;5002563;28;20462;-82
2022/12/27 13:14:33;;;;;;;6.83;2.37;;;8.40;99.90;;;;;;5007409;28;21874;-81
2022/12/27 13:17:09;;;;;;;4.13;1.63;;;8.40;99.90;;;;;;5005100;28;20986;-82
2022/12/27 13:19:56;;;;;;;6.80;1.50;;;8.30;99.90;;;;;;4996284;28;20470;-81
2022/12/27 13:22:37;;;;;;;5.63;1.90;;;8.10;99.90;;;;;;4992631;28;20550;-82
2022/12/27 13:25:15;;;;;;;9.00;2.00;;;8.10;99.90;;;;;;5001193;28;20434;-82
2022/12/27 13:27:56;;;;;;;5.47;1.97;;;8.20;99.90;;;;;;5010022;28;20525;-82
2022/12/27 13:30:32;;;;;;;6.40;2.33;;;8.10;99.90;;;;;;5042292;22;20506;-80
2022/12/27 13:33:16;;;;;;;6.17;1.83;;;8.10;99.90;;;;;;5029362;28;20484;-80
2022/12/27 13:35:58;;;;;;;5.00;1.63;;;8.10;99.90;;;;;;5025793;28;20820;-80
2022/12/27 13:38:38;;;;;;;4.73;2.20;;;8.10;99.90;;;;;;5027767;28;20453;-80
2022/12/27 13:41:29;;;;;;;5.10;1.70;;;8.10;99.90;;;;;;5023473;28;20480;-80
2022/12/27 13:44:22;;;;;;;5.90;1.57;;;8.10;99.90;;;;;;5001958;28;20449;-80
2022/12/27 13:47:28;;;;;;;7.90;2.20;;;8.00;99.90;;;;;;5001333;28;20478;-80
2022/12/27 13:50:14;;;;;;;4.07;1.90;;;8.00;99.90;;;;;;5008184;28;20507;-79
2022/12/27 13:52:56;;;;;;;6.13;1.83;;;8.00;99.90;;;;;;5006225;28;20447;-80
2022/12/27 13:55:42;;;;;;;3.37;2.23;;;8.00;99.90;;;;;;5002790;28;20477;-79
2022/12/27 13:58:34;;;;;;;8.27;2.60;;;7.90;99.90;;;;;;5005097;28;20521;-80
2022/12/27 14:01:15;;;;;;;5.80;2.20;;;8.00;99.90;;;;;;5005741;28;20589;-80
2022/12/27 14:03:57;;;;;;;4.43;1.60;;;8.00;99.90;;;;;;5003539;28;20444;-80
2022/12/27 14:06:58;;;;;;;3.60;1.50;;;8.10;99.90;;;;;;5001586;28;20457;-80
2022/12/27 14:09:55;;;;;;;5.60;2.03;;;8.00;99.90;;;;;;4989374;28;20488;-79
2022/12/27 14:12:45;;;;;;;4.30;1.63;;;8.10;99.90;;;;;;4995616;28;20463;-81
2022/12/27 14:15:16;;;;;;;4.97;1.90;;;8.20;99.90;;;;;;4982269;28;20458;-80
2022/12/27 14:17:53;;;;;;;9.13;2.00;;;8.30;99.90;;;;;;4981753;28;20453;-81
2022/12/27 14:20:50;;;;;;;8.00;2.27;;;8.30;99.90;;;;;;5001273;28;20485;-81
2022/12/27 14:23:39;;;;;;;2.77;1.50;;;8.20;99.90;;;;;;4998728;28;20523;-81
2022/12/27 14:26:40;;;;;;;3.93;2.70;;;8.10;99.90;;;;;;4981855;28;20428;-81
2022/12/27 14:29:55;;;;;;;3.40;1.47;;;8.10;99.90;;;;;;4989141;28;20520;-80
2022/12/27 14:32:57;;;;;;;4.73;2.30;;;8.10;99.90;;;;;;4999692;28;20443;-81
2022/12/27 14:35:59;;;;;;;3.80;1.40;;;8.10;99.90;;;;;;4962223;28;20459;-81
2022/12/27 14:38:59;;;;;;;3.00;1.40;;;8.00;99.90;;;;;;4980453;28;20458;-81
2022/12/27 14:42:03;;;;;;;5.83;1.80;;;8.10;99.90;;;;;;4980830;28;20474;-80
2022/12/27 14:45:14;;;;;;;2.40;1.30;;;7.90;99.90;;;;;;4990423;28;20904;-80
2022/12/27 14:48:35;;;;;;;13.20;2.33;;;8.00;99.90;;;;;;4999394;28;20530;-79
2022/12/27 14:51:27;;;;;;;4.47;1.77;;;7.90;99.90;;;;;;4993348;28;20471;-81
2022/12/27 14:54:27;;;;;;;8.43;2.60;;;7.80;99.90;;;;;;4988783;28;20440;-79
2022/12/27 14:57:05;;;;;;;5.67;2.03;;;7.70;99.90;;;;;;4981398;28;20545;-82
2022/12/27 14:59:41;;;;;;;5.17;1.60;;;7.70;99.90;;;;;;4994993;28;20525;-79
2022/12/27 15:02:26;;;;;;;2.40;1.50;;;7.70;99.90;;;;;;4994167;28;20521;-80
2022/12/27 15:05:15;;;;;;;4.60;1.40;;;7.60;99.90;;;;;;4998410;28;20447;-78
2022/12/27 15:08:00;;;;;;;7.53;1.97;;;7.50;99.90;;;;;;4996892;28;20477;-82
2022/12/27 15:10:45;;;;;;;5.40;2.10;;;7.50;99.90;;;;;;4998731;28;20513;-81